Time;durP1;ratioP1;P1;durP2;ratioP2;P2;SDS_P1;SDS_P2;PMS_P1;PMS_P2;Temp;Humidity;BMP_temperature;BMP_pressure;BME280_temperature;BME280_humidity;BME280_pressure;Samples;Min_cycle;Max_cycle;Signal;HPM_P1;HPM_P2
2021/11/10 00:02:02;;;;;;;1.33;0.70;;;;;;;-0.83;54.56;101378.66;5037406;28;20036;-78
2021/11/10 00:04:29;;;;;;;1.45;0.98;;;;;;;-0.78;54.41;101396.06;5029126;28;20044;-81
2021/11/10 00:06:55;;;;;;;1.00;0.80;;;;;;;-0.79;54.56;101389.19;5038282;28;20028;-78
2021/11/10 00:09:21;;;;;;;2.17;0.80;;;;;;;-0.84;54.47;101380.31;5054689;28;20048;-76
2021/11/10 00:11:47;;;;;;;1.10;0.80;;;;;;;-0.78;54.44;101390.06;5065537;28;20090;-77
2021/11/10 00:14:13;;;;;;;1.02;0.80;;;;;;;-0.75;54.68;101395.34;5054234;28;20435;-77
2021/11/10 00:16:39;;;;;;;2.85;0.93;;;;;;;-0.68;54.80;101400.06;5059195;28;20044;-76
2021/11/10 00:19:05;;;;;;;3.05;1.00;;;;;;;-0.65;54.85;101404.47;5060203;28;20573;-77
2021/11/10 00:21:32;;;;;;;1.75;0.80;;;;;;;-0.67;54.80;101409.50;5042845;28;20411;-78
2021/11/10 00:23:58;;;;;;;1.48;0.77;;;;;;;-0.57;55.12;101428.00;5065635;28;20173;-78
2021/11/10 00:26:24;;;;;;;1.10;0.80;;;;;;;-0.48;54.48;101432.00;5075370;28;20516;-80
2021/11/10 00:28:51;;;;;;;1.50;0.95;;;;;;;-0.40;54.90;101440.16;5060263;28;20523;-79
2021/11/10 00:31:18;;;;;;;1.17;0.90;;;;;;;-0.42;54.50;101423.81;5059124;28;20062;-79
2021/11/10 00:33:45;;;;;;;3.75;1.13;;;;;;;-0.36;54.75;101438.66;5056851;28;20041;-77
2021/11/10 00:36:10;;;;;;;0.82;0.73;;;;;;;-0.42;54.52;101426.38;5059829;28;20076;-78
2021/11/10 00:38:37;;;;;;;1.25;0.93;;;;;;;-0.22;54.25;101455.75;5060411;28;20090;-78
2021/11/10 00:41:04;;;;;;;1.60;1.00;;;;;;;-0.23;54.37;101442.88;5022306;28;20037;-76
2021/11/10 00:43:30;;;;;;;1.25;1.00;;;;;;;-0.25;53.98;101426.53;5030199;28;20460;-79
2021/11/10 00:45:56;;;;;;;5.28;0.90;;;;;;;-0.14;53.78;101446.00;5060628;28;20039;-79
2021/11/10 00:48:21;;;;;;;0.98;0.80;;;;;;;-0.10;53.42;101462.41;5053642;28;20581;-78
2021/11/10 00:50:47;;;;;;;1.50;0.73;;;;;;;-0.32;53.32;101423.59;5039347;28;20036;-77
2021/11/10 00:53:13;;;;;;;1.42;0.93;;;;;;;-0.18;53.49;101439.78;5042993;28;20040;-79
2021/11/10 00:55:41;;;;;;;1.52;0.80;;;;;;;-0.05;54.07;101453.34;5036228;28;20028;-79
2021/11/10 00:58:08;;;;;;;3.40;1.00;;;;;;;-0.03;53.80;101446.66;5076347;28;20042;-77
2021/11/10 01:00:35;;;;;;;1.45;0.98;;;;;;;-0.06;53.75;101452.44;5084609;28;20072;-78
2021/11/10 01:03:02;;;;;;;3.47;0.90;;;;;;;-0.02;53.44;101456.97;5065230;28;20103;-78
2021/11/10 01:05:28;;;;;;;1.83;1.00;;;;;;;0.09;53.64;101466.97;5041300;28;20063;-78
2021/11/10 01:07:55;;;;;;;1.55;1.10;;;;;;;0.08;53.50;101470.34;5064894;28;20419;-77
2021/11/10 01:10:23;;;;;;;2.65;1.10;;;;;;;0.06;53.20;101457.44;5045840;28;20142;-78
2021/11/10 01:12:49;;;;;;;1.67;1.10;;;;;;;0.05;52.72;101473.56;5055398;28;20044;-76
2021/11/10 01:15:15;;;;;;;2.40;1.00;;;;;;;-0.08;52.80;101448.03;5057359;28;20488;-79
2021/11/10 01:17:42;;;;;;;1.88;1.23;;;;;;;0.03;53.42;101481.97;5047895;28;20126;-78
2021/11/10 01:20:12;;;;;;;4.22;1.20;;;;;;;-0.05;53.30;101469.56;5041693;28;20499;-79
2021/11/10 01:22:42;;;;;;;2.92;1.20;;;;;;;0.08;53.02;101485.69;5062622;28;20048;-77
2021/11/10 01:25:09;;;;;;;4.97;1.42;;;;;;;0.01;52.72;101473.31;5032263;28;20070;-79
2021/11/10 01:27:37;;;;;;;2.33;1.27;;;;;;;0.08;52.79;101486.56;5063440;28;20036;-78
2021/11/10 01:30:07;;;;;;;3.60;1.50;;;;;;;0.17;53.50;101493.91;5031430;28;20049;-79
2021/11/10 01:32:33;;;;;;;4.97;1.30;;;;;;;0.28;53.41;101492.91;5048506;28;20064;-77
2021/11/10 01:35:00;;;;;;;1.90;1.17;;;;;;;0.32;52.44;101482.84;5059803;28;20500;-77
2021/11/10 01:37:26;;;;;;;2.30;1.20;;;;;;;0.29;52.78;101465.59;5049360;28;20032;-77
2021/11/10 01:39:52;;;;;;;1.73;1.27;;;;;;;0.37;53.20;101491.66;5066297;28;20181;-78
2021/11/10 01:42:25;;;;;;;1.20;1.00;;;;;;;0.45;52.64;101495.56;5045044;28;20048;-76
2021/11/10 01:44:51;;;;;;;2.00;1.15;;;;;;;0.45;52.71;101481.06;5027989;28;20048;-78
2021/11/10 01:47:17;;;;;;;2.55;1.33;;;;;;;0.40;52.34;101463.69;5064530;28;20442;-77
2021/11/10 01:49:43;;;;;;;1.75;1.17;;;;;;;0.45;52.87;101477.66;5060268;28;20040;-78
2021/11/10 01:52:12;;;;;;;1.92;1.15;;;;;;;0.39;52.74;101487.53;5045957;28;20104;-77
2021/11/10 01:54:40;;;;;;;2.85;1.38;;;;;;;0.22;53.18;101473.72;5044484;28;20037;-77
2021/11/10 01:57:11;;;;;;;2.28;1.30;;;;;;;0.10;52.50;101479.88;5053233;28;20551;-80
2021/11/10 01:59:44;;;;;;;2.47;1.30;;;;;;;-0.01;51.94;101497.13;5061491;28;20062;-76
2021/11/10 02:02:21;;;;;;;1.95;1.10;;;;;;;-0.20;53.06;101507.03;5056375;28;20040;-78
2021/11/10 02:04:52;;;;;;;2.58;1.27;;;;;;;-0.41;53.05;101504.91;5057479;28;20296;-80
2021/11/10 02:07:20;;;;;;;1.95;1.10;;;;;;;-0.43;52.75;101520.91;5069181;28;20044;-76
2021/11/10 02:09:48;;;;;;;1.40;1.05;;;;;;;-0.52;52.61;101521.22;5076386;28;20040;-80
2021/11/10 02:12:15;;;;;;;1.08;0.90;;;;;;;-0.59;52.89;101525.06;5041395;28;20047;-76
2021/11/10 02:14:46;;;;;;;1.90;1.05;;;;;;;-0.76;53.08;101506.06;5049433;28;20151;-77
2021/11/10 02:17:19;;;;;;;1.25;1.00;;;;;;;-0.70;52.58;101524.38;5065703;28;20044;-77
2021/11/10 02:19:47;;;;;;;2.05;1.15;;;;;;;-0.74;52.96;101530.06;5065388;28;20052;-78
2021/11/10 02:22:21;;;;;;;2.42;1.13;;;;;;;-0.92;53.28;101517.88;5060441;28;20773;-80
2021/11/10 02:24:47;;;;;;;2.40;1.20;;;;;;;-0.86;52.64;101542.06;5064205;28;20055;-76
2021/11/10 02:27:21;;;;;;;6.97;1.48;;;;;;;-0.96;52.86;101532.91;5047859;28;20430;-79
2021/11/10 02:29:48;;;;;;;2.72;1.08;;;;;;;-1.00;53.08;101542.06;5064360;28;20048;-81
2021/11/10 02:32:14;;;;;;;2.30;1.10;;;;;;;-1.29;53.74;101520.56;5029764;28;20075;-77
2021/11/10 02:34:42;;;;;;;4.50;1.40;;;;;;;-1.20;54.11;101525.41;5029638;28;20461;-79
2021/11/10 02:37:10;;;;;;;2.85;1.23;;;;;;;-1.14;53.24;101548.81;5015521;28;20071;-78
2021/11/10 02:39:36;;;;;;;3.05;1.60;;;;;;;-1.40;53.49;101518.94;5047329;28;20055;-77
2021/11/10 02:42:04;;;;;;;2.22;1.27;;;;;;;-1.28;53.25;101554.66;5045943;28;20467;-78
2021/11/10 02:44:30;;;;;;;7.53;1.77;;;;;;;-1.35;54.39;101547.38;5024189;28;20553;-77
2021/11/10 02:46:56;;;;;;;4.25;1.27;;;;;;;-1.29;53.97;101558.88;5030781;28;20055;-77
2021/11/10 02:49:22;;;;;;;4.40;1.95;;;;;;;-1.31;53.87;101552.78;5026625;28;20041;-79
2021/11/10 02:52:10;;;;;;;4.95;1.30;;;;;;;-1.22;53.73;101558.53;5010174;28;20523;-77
2021/11/10 02:54:42;;;;;;;2.00;1.10;;;;;;;-1.11;54.84;101559.25;5043020;28;20044;-79
2021/11/10 02:57:08;;;;;;;4.10;1.70;;;;;;;-1.02;54.12;101563.16;5008589;28;20186;-77
2021/11/10 02:59:35;;;;;;;7.43;1.50;;;;;;;-1.04;53.85;101557.97;5026246;28;20052;-77
2021/11/10 03:02:02;;;;;;;2.10;1.38;;;;;;;-0.92;54.59;101575.78;5029235;28;20087;-78
2021/11/10 03:04:32;;;;;;;3.05;1.60;;;;;;;-0.84;53.83;101576.28;5006489;28;20047;-78
2021/11/10 03:06:59;;;;;;;3.00;1.52;;;;;;;-0.80;54.36;101574.03;5022484;28;20059;-79
2021/11/10 03:09:28;;;;;;;3.47;1.60;;;;;;;-0.69;53.93;101571.31;5023629;28;20040;-77
2021/11/10 03:11:58;;;;;;;3.92;1.60;;;;;;;-0.57;54.13;101571.22;5042594;28;20144;-78
2021/11/10 03:14:29;;;;;;;4.85;1.92;;;;;;;-0.49;54.16;101567.47;5034163;28;20040;-77
2021/11/10 03:16:56;;;;;;;4.20;1.77;;;;;;;-0.44;54.05;101568.66;5027135;28;20132;-79
2021/11/10 03:19:24;;;;;;;2.47;1.48;;;;;;;-0.53;54.33;101539.91;5021561;28;20519;-76
2021/11/10 03:21:50;;;;;;;3.42;1.80;;;;;;;-0.34;54.60;101568.47;5035330;28;20040;-79
2021/11/10 03:24:17;;;;;;;1.83;1.17;;;;;;;-0.32;54.16;101566.00;5015464;28;20094;-79
2021/11/10 03:26:45;;;;;;;5.15;2.47;;;;;;;-0.28;54.19;101570.53;5023605;28;20047;-79
2021/11/10 03:29:11;;;;;;;5.60;1.83;;;;;;;-0.27;54.54;101568.84;5022672;28;20417;-78
2021/11/10 03:31:40;;;;;;;3.28;1.55;;;;;;;-0.28;53.79;101573.09;5042361;28;20152;-79
2021/11/10 03:34:08;;;;;;;6.55;1.80;;;;;;;-0.20;53.77;101573.56;5042998;28;20125;-78
2021/11/10 03:36:35;;;;;;;3.60;1.40;;;;;;;-0.19;54.17;101578.75;5050985;28;20060;-80
2021/11/10 03:39:03;;;;;;;5.43;1.40;;;;;;;-0.14;53.95;101586.75;5056354;28;20415;-78
2021/11/10 03:41:32;;;;;;;4.25;1.52;;;;;;;-0.42;53.79;101549.16;5042836;28;20537;-79
2021/11/10 03:43:58;;;;;;;4.00;1.83;;;;;;;-0.34;53.81;101572.69;5041472;28;20488;-78
2021/11/10 03:46:25;;;;;;;1.75;1.35;;;;;;;-0.32;54.20;101578.78;5043964;28;20505;-81
2021/11/10 03:48:55;;;;;;;1.73;1.20;;;;;;;-0.27;53.72;101594.41;5032059;28;20041;-78
2021/11/10 03:51:22;;;;;;;2.53;1.17;;;;;;;-0.34;53.87;101588.03;5039230;28;20420;-78
2021/11/10 03:53:48;;;;;;;2.17;1.20;;;;;;;-0.29;53.75;101601.09;5041260;28;20032;-81
2021/11/10 03:56:16;;;;;;;3.03;1.42;;;;;;;-0.21;54.79;101595.69;5024481;28;20040;-80
2021/11/10 03:58:42;;;;;;;2.80;1.20;;;;;;;-0.29;54.10;101565.28;5013561;28;20052;-76
2021/11/10 04:01:13;;;;;;;6.15;1.77;;;;;;;-0.05;53.82;101587.31;5048742;28;20304;-76
2021/11/10 04:03:40;;;;;;;2.35;1.50;;;;;;;-0.03;54.33;101574.63;5049322;28;20731;-79
2021/11/10 04:06:08;;;;;;;2.40;1.55;;;;;;;-0.11;53.87;101553.66;5032250;28;20498;-78
2021/11/10 04:08:37;;;;;;;3.03;1.48;;;;;;;0.11;54.00;101590.84;5048547;28;20454;-82
2021/11/10 04:11:03;;;;;;;7.25;1.90;;;;;;;0.07;54.10;101566.72;5062405;28;20040;-80
2021/11/10 04:13:30;;;;;;;3.75;1.85;;;;;;;0.14;53.89;101576.56;5043914;28;20055;-80
2021/11/10 04:15:57;;;;;;;3.83;1.80;;;;;;;0.18;54.47;101593.00;5064994;28;20124;-81
2021/11/10 04:18:23;;;;;;;4.55;1.98;;;;;;;0.04;54.27;101563.97;5043889;28;20407;-79
2021/11/10 04:20:51;;;;;;;6.07;1.80;;;;;;;0.20;54.44;101580.28;5033891;28;20617;-81
2021/11/10 04:23:18;;;;;;;3.42;1.73;;;;;;;0.32;53.82;101604.09;5060356;28;20056;-78
2021/11/10 04:25:47;;;;;;;3.65;1.65;;;;;;;0.10;53.74;101572.03;5039305;28;20416;-79
2021/11/10 04:28:13;;;;;;;3.05;1.80;;;;;;;0.06;53.35;101576.88;5064151;28;20040;-79
2021/11/10 04:30:39;;;;;;;4.53;1.60;;;;;;;0.29;54.40;101616.69;5049606;28;21091;-79
2021/11/10 04:33:06;;;;;;;2.08;1.50;;;;;;;0.20;54.18;101598.22;5051274;28;20064;-79
2021/11/10 04:35:32;;;;;;;2.13;1.27;;;;;;;0.12;53.19;101605.41;5039233;28;20344;-78
2021/11/10 04:37:58;;;;;;;2.55;1.52;;;;;;;-0.02;53.71;101577.28;5029890;28;20048;-76
2021/11/10 04:40:26;;;;;;;2.45;1.50;;;;;;;0.01;53.67;101594.47;5063182;28;20070;-79
2021/11/10 04:42:52;;;;;;;3.72;1.42;;;;;;;-0.07;53.84;101568.41;5065071;28;20045;-77
2021/11/10 04:45:33;;;;;;;4.25;2.40;;;;;;;0.19;53.71;101619.50;5051076;28;20050;-77
2021/11/10 04:47:59;;;;;;;4.63;1.80;;;;;;;0.25;53.98;101622.41;5054188;28;20047;-80
2021/11/10 04:50:26;;;;;;;2.60;1.50;;;;;;;0.23;53.54;101618.88;5066886;28;20043;-82
2021/11/10 04:52:52;;;;;;;7.70;1.80;;;;;;;0.23;54.23;101617.22;5059663;28;20043;-80
2021/11/10 04:55:18;;;;;;;6.18;2.58;;;;;;;0.21;53.40;101597.44;5056939;28;20068;-76
2021/11/10 04:57:45;;;;;;;3.38;1.65;;;;;;;0.17;53.50;101593.78;5048292;28;20054;-76
2021/11/10 05:00:13;;;;;;;2.45;1.77;;;;;;;0.24;54.20;101587.34;5041693;28;20073;-77
2021/11/10 05:02:47;;;;;;;3.88;1.55;;;;;;;0.49;53.86;101620.50;5057204;28;20044;-77
2021/11/10 05:05:17;;;;;;;4.65;1.98;;;;;;;0.58;54.29;101592.84;5065221;28;20040;-77
2021/11/10 05:07:43;;;;;;;10.63;2.05;;;;;;;0.72;53.74;101590.25;5059472;28;20037;-77
2021/11/10 05:10:10;;;;;;;8.27;2.28;;;;;;;0.75;53.44;101610.94;5036919;28;20055;-78
2021/11/10 05:12:36;;;;;;;4.30;1.95;;;;;;;0.79;53.85;101607.75;5063941;28;20496;-77
2021/11/10 05:15:03;;;;;;;4.80;1.60;;;;;;;0.57;52.97;101585.97;5036930;28;20442;-78
2021/11/10 05:17:29;;;;;;;2.88;1.40;;;;;;;0.64;53.39;101594.94;5064033;28;20408;-82
2021/11/10 05:19:55;;;;;;;3.67;1.63;;;;;;;0.67;53.05;101607.03;5054008;28;20055;-78
2021/11/10 05:22:21;;;;;;;3.40;1.45;;;;;;;0.62;53.19;101593.94;5048876;28;20476;-75
2021/11/10 05:24:47;;;;;;;2.15;1.50;;;;;;;0.65;53.32;101606.94;5062411;28;20032;-80
2021/11/10 05:27:13;;;;;;;3.78;1.90;;;;;;;0.68;53.32;101599.41;5060230;28;20063;-79
2021/11/10 05:29:39;;;;;;;3.42;1.80;;;;;;;0.89;53.07;101635.72;5067387;28;20032;-77
2021/11/10 05:32:06;;;;;;;10.93;2.10;;;;;;;0.76;53.03;101615.28;5043795;28;20096;-77
2021/11/10 05:34:31;;;;;;;7.18;1.50;;;;;;;0.95;53.14;101634.31;5046876;28;20049;-79
2021/11/10 05:36:57;;;;;;;8.18;2.13;;;;;;;1.01;53.37;101634.66;5045462;28;20109;-79
2021/11/10 05:39:23;;;;;;;6.45;2.17;;;;;;;0.66;53.21;101569.38;5015316;28;20045;-78
2021/11/10 05:41:49;;;;;;;2.88;1.60;;;;;;;1.31;53.63;101642.41;5048490;28;20356;-77
2021/11/10 05:44:15;;;;;;;4.35;1.75;;;;;;;1.55;53.00;101642.06;5034850;28;20470;-79
2021/11/10 05:46:44;;;;;;;3.72;1.70;;;;;;;1.85;52.94;101631.78;5064778;28;20048;-79
2021/11/10 05:49:10;;;;;;;12.60;1.80;;;;;;;1.95;52.25;101622.09;5052283;28;20109;-79
2021/11/10 05:51:35;;;;;;;3.53;1.80;;;;;;;1.87;52.50;101591.66;5034784;28;20127;-78
2021/11/10 05:54:03;;;;;;;2.65;1.60;;;;;;;2.21;52.41;101621.75;5051026;28;20791;-80
2021/11/10 05:56:33;;;;;;;2.95;1.73;;;;;;;2.29;52.33;101625.63;5013174;28;20036;-79
2021/11/10 05:59:00;;;;;;;4.82;2.20;;;;;;;2.32;51.82;101636.03;5028593;28;20044;-76
2021/11/10 06:01:27;;;;;;;5.70;2.13;;;;;;;2.19;51.21;101600.22;5030233;28;20127;-77
2021/11/10 06:03:54;;;;;;;8.02;1.90;;;;;;;2.34;51.39;101621.59;5047790;28;20033;-79
2021/11/10 06:06:22;;;;;;;7.00;2.20;;;;;;;2.31;51.18;101631.75;5034192;28;21385;-79
2021/11/10 06:08:47;;;;;;;6.25;2.40;;;;;;;2.28;51.28;101615.25;5067027;28;20441;-77
2021/11/10 06:11:22;;;;;;;9.98;2.75;;;;;;;2.29;51.13;101612.78;5051776;28;20064;-80
2021/11/10 06:13:53;;;;;;;14.70;3.53;;;;;;;2.16;51.16;101585.53;5065120;28;20155;-79
2021/11/10 06:16:37;;;;;;;;;;;;;;;;;;;;;
2021/11/10 06:19:08;;;;;;;9.30;3.45;;;;;;;2.00;50.92;101526.44;5037493;28;20041;-81
2021/11/10 06:21:37;;;;;;;7.90;3.05;;;;;;;2.46;50.61;101594.81;5023714;28;20488;-77
2021/11/10 06:24:04;;;;;;;9.10;2.75;;;;;;;2.41;50.38;101587.72;5036552;28;20082;-77
2021/11/10 06:26:30;;;;;;;10.82;3.00;;;;;;;2.15;50.03;101567.47;5039019;28;20044;-76
2021/11/10 06:28:56;;;;;;;5.40;3.60;;;;;;;2.21;50.03;101606.34;5039133;28;20060;-78
2021/11/10 06:31:25;;;;;;;7.90;2.70;;;;;;;2.15;50.27;101603.44;5032488;28;20110;-77
2021/11/10 06:33:52;;;;;;;4.15;2.60;;;;;;;2.30;50.63;101594.00;5038274;28;20049;-78
2021/11/10 06:36:31;;;;;;;7.15;3.15;;;;;;;2.33;50.69;101542.75;5041947;28;20478;-78
2021/11/10 06:39:23;;;;;;;5.45;2.78;;;;;;;3.79;50.83;101583.41;5065447;28;20050;-77
2021/11/10 06:41:49;;;;;;;5.85;3.00;;;;;;;5.66;51.43;101593.19;5073680;28;20033;-78
2021/11/10 06:44:18;;;;;;;10.38;2.88;;;;;;;7.78;50.40;101576.50;5043972;28;20044;-79
2021/11/10 06:46:44;;;;;;;5.70;2.20;;;;;;;9.57;48.11;101578.75;5057308;28;20037;-79
2021/11/10 06:49:22;;;;;;;7.30;2.60;;;;;;;11.74;47.17;101586.41;5044696;28;20044;-79
2021/11/10 06:51:48;;;;;;;6.95;2.50;;;;;;;13.51;44.63;101567.47;5060132;28;20076;-78
2021/11/10 06:54:14;;;;;;;4.88;2.20;;;;;;;15.32;40.67;101572.50;5063146;28;20051;-76
2021/11/10 06:56:39;;;;;;;3.88;2.28;;;;;;;16.68;38.21;101565.03;5050272;28;20063;-80
2021/11/10 06:59:05;;;;;;;5.88;2.50;;;;;;;17.80;35.44;101556.22;5070008;28;20044;-78
2021/11/10 07:01:31;;;;;;;6.82;2.40;;;;;;;18.84;33.66;101553.16;5061987;28;20051;-79
2021/11/10 07:03:57;;;;;;;5.88;2.30;;;;;;;19.07;31.74;101528.22;5050189;28;20468;-79
2021/11/10 07:06:23;;;;;;;6.10;2.40;;;;;;;18.09;31.00;101549.78;5062587;28;20095;-78
2021/11/10 07:08:48;;;;;;;10.88;2.33;;;;;;;15.98;31.42;101554.03;5058127;28;20040;-79
2021/11/10 07:11:14;;;;;;;4.85;2.22;;;;;;;14.39;31.47;101563.56;5068694;28;20040;-78
2021/11/10 07:13:40;;;;;;;9.63;2.60;;;;;;;15.10;32.76;101553.25;5032653;28;20055;-78
2021/11/10 07:16:09;;;;;;;10.82;2.70;;;;;;;16.98;31.53;101545.63;5066597;28;20059;-84
2021/11/10 07:18:35;;;;;;;6.75;1.95;;;;;;;18.50;28.96;101538.72;5052746;28;20063;-78
2021/11/10 07:21:00;;;;;;;5.50;2.30;;;;;;;19.61;27.87;101534.25;5066923;28;20115;-77
2021/11/10 07:23:26;;;;;;;3.25;2.28;;;;;;;20.76;26.96;101520.41;5061561;28;20040;-79
2021/11/10 07:25:52;;;;;;;3.22;2.00;;;;;;;22.08;26.32;101527.47;5066010;28;20079;-80
2021/11/10 07:28:18;;;;;;;6.43;2.20;;;;;;;23.02;24.52;101515.72;5065759;28;20041;-78
2021/11/10 07:30:45;;;;;;;5.53;2.20;;;;;;;22.92;23.98;101503.69;5061400;28;20052;-81
2021/11/10 07:33:11;;;;;;;5.00;1.95;;;;;;;22.52;23.45;101503.22;5045786;28;20037;-82
2021/11/10 07:35:37;;;;;;;8.13;1.75;;;;;;;20.81;22.96;101503.56;5002821;28;20082;-79
2021/11/10 07:38:04;;;;;;;7.03;2.30;;;;;;;20.00;23.92;101531.75;5018821;28;20139;-80
2021/11/10 07:40:30;;;;;;;4.50;2.20;;;;;;;20.31;24.10;101552.25;5047987;28;20040;-78
2021/11/10 07:42:56;;;;;;;7.82;2.35;;;;;;;20.96;23.60;101545.50;5049108;28;20519;-77
2021/11/10 07:45:31;;;;;;;7.05;2.35;;;;;;;22.09;23.00;101512.47;5036972;28;20163;-82
2021/11/10 07:47:59;;;;;;;7.65;2.03;;;;;;;23.82;21.80;101521.81;5084777;28;20045;-80
2021/11/10 07:50:26;;;;;;;7.05;2.22;;;;;;;25.10;21.58;101501.69;5030749;28;20036;-81
2021/11/10 07:52:52;;;;;;;5.88;1.83;;;;;;;25.20;19.85;101524.34;5043607;28;20076;-80
2021/11/10 07:55:19;;;;;;;4.18;1.95;;;;;;;24.60;20.16;101532.13;5021122;28;20076;-80
2021/11/10 08:01:15;;;;;;;4.07;1.98;;;;;;;21.74;21.15;101482.56;5059149;28;20053;-79
2021/11/10 08:03:48;;;;;;;4.95;2.30;;;;;;;21.45;21.66;101559.25;5020176;28;20407;-80
2021/11/10 08:06:20;;;;;;;8.95;2.17;;;;;;;21.86;21.22;101473.38;5029129;28;20053;-80
2021/11/10 08:08:46;;;;;;;5.28;2.28;;;;;;;22.38;21.00;101470.94;5033816;28;20043;-80
2021/11/10 08:11:16;;;;;;;3.40;2.15;;;;;;;22.97;19.93;101559.25;5050850;28;20487;-83
2021/11/10 08:13:47;;;;;;;6.18;2.10;;;;;;;22.46;19.97;101552.94;5025327;28;20060;-79
2021/11/10 08:16:25;;;;;;;13.15;2.90;;;;;;;20.79;21.00;101469.19;5032219;28;20148;-78
2021/11/10 08:19:16;;;;;;;;;;;;;;;;;;;;;
2021/11/10 08:22:08;;;;;;;8.07;2.60;;;;;;;22.27;20.34;101513.69;5036961;28;20549;-78
2021/11/10 08:24:34;;;;;;;6.30;2.88;;;;;;;22.99;19.91;101518.47;5067234;28;20036;-80
2021/11/10 08:30:13;;;;;;;15.18;3.40;;;;;;;24.90;18.86;101537.16;5047762;28;20059;-79
2021/11/10 08:32:52;;;;;;;8.82;3.00;;;;;;;25.34;18.22;101517.53;5063664;28;20079;-76
2021/11/10 08:35:26;;;;;;;9.30;2.72;;;;;;;25.59;18.74;101533.34;5047192;28;20044;-79
2021/11/10 08:37:53;;;;;;;7.90;2.60;;;;;;;26.70;17.67;101511.25;5073286;28;20036;-78
2021/11/10 08:40:20;;;;;;;9.00;2.47;;;;;;;27.74;17.14;101526.47;5047623;28;20036;-80
2021/11/10 08:42:45;;;;;;;8.98;2.30;;;;;;;27.84;16.77;101546.41;5067057;28;20070;-81
2021/11/10 08:45:16;;;;;;;16.10;2.78;;;;;;;28.20;16.27;101521.28;5045124;28;20041;-81
2021/11/10 08:47:43;;;;;;;5.55;3.13;;;;;;;29.13;16.50;101526.66;5060928;28;20036;-77
2021/11/10 08:50:11;;;;;;;6.53;2.72;;;;;;;30.42;15.66;101515.13;5062585;28;20040;-80
2021/11/10 08:52:37;;;;;;;2.75;2.20;;;;;;;30.92;14.77;101502.81;5044887;28;20565;-79
2021/11/10 08:55:09;;;;;;;7.88;2.60;;;;;;;29.06;14.57;101503.84;5075377;28;20135;-77
2021/11/10 08:57:39;;;;;;;5.30;2.22;;;;;;;25.57;15.99;101527.22;5052260;28;20055;-80
2021/11/10 09:00:08;;;;;;;9.10;2.60;;;;;;;23.12;17.24;101526.88;5046368;28;20053;-77
2021/11/10 09:02:35;;;;;;;6.88;2.72;;;;;;;20.96;18.42;101534.91;5044122;28;20521;-77
2021/11/10 09:05:03;;;;;;;9.02;2.60;;;;;;;19.31;19.25;101529.53;5047930;28;20093;-78
2021/11/10 09:07:29;;;;;;;8.43;2.75;;;;;;;17.73;20.12;101540.53;5048269;28;20064;-77
2021/11/10 09:09:55;;;;;;;6.28;2.72;;;;;;;16.52;21.24;101535.38;5030111;28;20075;-76
2021/11/10 09:12:20;;;;;;;12.45;2.97;;;;;;;15.59;21.97;101546.22;5061494;28;20043;-78
2021/11/10 09:14:46;;;;;;;7.15;2.92;;;;;;;15.10;22.57;101558.50;5043509;28;20426;-77
2021/11/10 09:17:12;;;;;;;9.32;2.78;;;;;;;14.83;22.93;101548.88;5065537;28;20037;-78
2021/11/10 09:19:43;;;;;;;10.23;2.60;;;;;;;14.15;23.26;101555.63;5046542;28;20044;-78
2021/11/10 09:22:09;;;;;;;8.20;2.63;;;;;;;13.66;23.84;101560.59;5048664;28;20044;-76
2021/11/10 09:24:36;;;;;;;9.98;2.92;;;;;;;13.09;24.51;101558.41;5041127;28;20411;-76
2021/11/10 09:27:03;;;;;;;5.57;2.55;;;;;;;12.72;25.03;101558.03;5064990;28;20039;-78
2021/11/10 09:29:30;;;;;;;6.35;2.30;;;;;;;12.44;25.33;101563.00;5035304;28;20048;-79
2021/11/10 09:31:57;;;;;;;6.20;2.47;;;;;;;12.39;25.82;101559.44;5064303;28;20044;-78
2021/11/10 09:34:26;;;;;;;9.88;3.17;;;;;;;13.49;25.79;101556.13;5050706;28;20040;-78
2021/11/10 09:36:53;;;;;;;6.22;2.85;;;;;;;15.04;25.22;101541.03;5037661;28;20048;-79
2021/11/10 09:39:22;;;;;;;7.40;2.55;;;;;;;16.53;23.59;101548.50;5043616;28;20041;-76
2021/11/10 09:41:53;;;;;;;9.68;2.22;;;;;;;17.38;23.49;101549.63;5057600;28;20040;-77
2021/11/10 09:44:21;;;;;;;7.22;2.13;;;;;;;18.06;22.49;101548.09;5057701;28;20504;-76
2021/11/10 09:46:48;;;;;;;5.72;2.40;;;;;;;18.51;22.10;101502.66;5024154;28;20152;-76
2021/11/10 09:49:14;;;;;;;7.43;3.00;;;;;;;19.08;21.74;101511.47;5044899;28;20037;-76
2021/11/10 09:51:42;;;;;;;4.28;2.05;;;;;;;17.61;21.04;101528.38;5058739;28;20407;-77
2021/11/10 09:54:09;;;;;;;6.25;2.20;;;;;;;15.51;22.20;101551.47;5076839;28;20419;-77
2021/11/10 09:56:37;;;;;;;9.45;3.88;;;;;;;13.60;23.28;101564.06;5059002;28;20041;-77
2021/11/10 09:59:04;;;;;;;11.10;2.60;;;;;;;11.94;24.95;101562.31;5074689;28;20042;-76
2021/11/10 10:01:36;;;;;;;4.38;2.35;;;;;;;10.51;26.38;101559.13;5048666;28;20041;-75
2021/11/10 10:04:04;;;;;;;4.43;1.83;;;;;;;9.37;27.49;101576.56;5056707;28;20108;-77
2021/11/10 10:06:32;;;;;;;3.88;2.33;;;;;;;8.63;29.04;101575.53;5073634;28;20040;-78
2021/11/10 10:08:59;;;;;;;5.00;2.38;;;;;;;8.13;29.91;101566.31;5068766;28;20037;-77
2021/11/10 10:11:25;;;;;;;11.30;2.95;;;;;;;7.86;30.33;101556.00;5069035;28;20040;-77
2021/11/10 10:14:00;;;;;;;5.53;1.92;;;;;;;7.73;30.80;101588.44;5048372;28;20033;-76
2021/11/10 10:16:28;;;;;;;8.20;2.90;;;;;;;7.33;31.13;101582.84;5034690;28;20040;-78
2021/11/10 10:19:21;;;;;;;6.03;2.28;;;;;;;6.90;31.95;101586.56;5034546;28;20078;-75
2021/11/10 10:22:00;;;;;;;8.85;2.33;;;;;;;6.41;32.87;101554.69;5035573;28;20099;-76
2021/11/10 10:24:26;;;;;;;7.95;2.20;;;;;;;6.11;33.34;101555.28;5041437;28;20040;-76
2021/11/10 10:26:52;;;;;;;8.05;2.40;;;;;;;5.96;33.78;101547.84;5055086;28;20043;-76
2021/11/10 10:29:18;;;;;;;4.38;2.22;;;;;;;5.81;34.28;101541.25;5040740;28;20041;-78
2021/11/10 10:31:46;;;;;;;5.30;2.55;;;;;;;5.76;34.69;101547.06;5053113;28;20056;-77
2021/11/10 10:34:17;;;;;;;11.65;2.38;;;;;;;5.51;34.97;101553.84;5069920;28;20133;-77
2021/11/10 10:36:45;;;;;;;8.48;2.50;;;;;;;5.32;35.65;101553.09;5063949;28;20074;-77
2021/11/10 10:39:19;;;;;;;16.27;3.10;;;;;;;5.13;35.78;101549.78;5061697;28;20045;-78
2021/11/10 10:41:51;;;;;;;9.68;2.13;;;;;;;4.93;36.39;101546.34;5071109;28;20037;-76
2021/11/10 10:44:19;;;;;;;;;;;;;;;4.75;36.15;101549.00;5064902;28;20049;-78
2021/11/10 10:46:57;;;;;;;7.53;2.55;;;;;;;4.50;37.19;101560.88;5057785;28;19969;-78
2021/11/10 10:49:43;;;;;;;3.92;2.25;;;;;;;4.25;37.25;101558.88;5047628;28;20139;-78
2021/11/10 10:52:14;;;;;;;8.05;2.05;;;;;;;4.09;38.56;101551.28;5079232;28;20132;-80
2021/11/10 10:54:41;;;;;;;3.72;2.15;;;;;;;3.86;38.58;101535.63;5074503;28;20059;-76
2021/11/10 10:57:10;;;;;;;6.72;2.05;;;;;;;3.79;39.25;101544.78;5042993;28;20048;-78
2021/11/10 10:59:37;;;;;;;4.07;1.75;;;;;;;3.72;39.16;101546.19;5034555;28;20040;-79
2021/11/10 11:02:04;;;;;;;4.97;2.33;;;;;;;3.37;39.47;101511.03;5060091;28;20055;-78
2021/11/10 11:04:32;;;;;;;5.13;2.83;;;;;;;3.41;39.77;101549.88;5063411;28;20037;-80
2021/11/10 11:07:06;;;;;;;7.25;2.65;;;;;;;2.94;40.49;101513.28;5069860;28;20418;-80
2021/11/10 11:09:44;;;;;;;8.95;2.47;;;;;;;3.05;41.38;101551.50;5069399;28;20048;-80
2021/11/10 11:12:23;;;;;;;12.65;3.15;;;;;;;3.05;41.56;101551.50;5086487;28;20055;-77
2021/11/10 11:15:13;;;;;;;9.95;2.35;;;;;;;3.01;41.69;101542.78;5070532;28;20063;-80
2021/11/10 11:17:44;;;;;;;8.45;2.50;;;;;;;2.84;42.02;101521.34;5032555;28;20044;-77
2021/11/10 11:20:10;;;;;;;6.10;2.63;;;;;;;2.95;42.35;101537.31;5055223;28;20044;-80
2021/11/10 11:22:38;;;;;;;6.00;2.47;;;;;;;2.89;42.80;101532.75;5065664;28;20036;-78
2021/11/10 11:25:25;;;;;;;6.72;2.10;;;;;;;2.82;42.77;101534.13;5061557;28;20059;-76
2021/11/10 11:27:56;;;;;;;4.90;2.30;;;;;;;2.69;43.14;101503.44;5062575;28;20064;-77
2021/11/10 11:30:23;;;;;;;5.97;2.22;;;;;;;2.68;43.28;101529.97;5071568;28;20077;-80
2021/11/10 11:32:54;;;;;;;6.18;2.55;;;;;;;2.62;43.67;101527.97;5038935;28;20048;-80
2021/11/10 11:35:32;;;;;;;9.15;2.40;;;;;;;2.55;44.17;101503.66;5021450;28;20066;-78
2021/11/10 11:38:05;;;;;;;5.85;2.22;;;;;;;2.62;43.73;101509.97;5062429;28;20044;-79
2021/11/10 11:40:33;;;;;;;6.70;2.58;;;;;;;2.42;44.12;101498.69;5053082;28;20056;-79
2021/11/10 11:43:01;;;;;;;8.20;2.38;;;;;;;2.28;44.44;101497.97;5019430;28;20063;-77
2021/11/10 11:45:31;;;;;;;12.38;3.03;;;;;;;2.40;44.42;101514.00;5068821;28;20090;-79